sim
Sign-in with your pilot id or email,
or register
Callsign
Passwort

Schedule Details

Flight Number: DLH1985
Departure: Cologne Bonn Airport (EDDK) at 09:15
Arrival: Munich Airport (EDDM) at 10:20
Route: Lufthansa Passenger Schedule. Enter filed route here before submitting Pirep.

Weather Information
Getting current METAR information for EDDK 240420Z 24007KT 210V280 9999 FEW027 13/10 Q1004 NOSIG
Getting current METAR information for EDDM 240420Z VRB02KT CAVOK 09/09 Q1009 NOSIG

Schedule Frequency

Route Map